Погода Сил-Бична неделю

Калифорния, США

01 - 07 сентября
  • 01сентября
    Сегодня
    +18°
    +27°
    Ясно и безоблачно
    ВремяПогодаТемператураВлажностьДавлениеВетер, м/сВероятность осадков
    02:00Ясно и безоблачно+20°C82 %761 мм1.6 м/с2 %
    05:00Ясно и безоблачно+20°C85 %760 мм1.2 м/с2 %
    08:00Ясно и безоблачно+21°C77 %761 мм1.3 м/с2 %
    11:00Ясно и безоблачно+24°C60 %762 мм2.7 м/с2 %
    14:00Ясно и безоблачно+26°C61 %761 мм5.3 м/с2 %
    17:00Ясно и безоблачно+25°C51 %760 мм4.7 м/с2 %
    20:00Ясно и безоблачно+22°C66 %760 мм3.6 м/с2 %
    23:00Ясно и безоблачно+21°C71 %761 мм2.3 м/с2 %
  • 02сентября
    Среда
    +19°
    +26°
    Ясно и безоблачно
    ВремяПогодаТемператураВлажностьДавлениеВетер, м/сВероятность осадков
    02:00Ясно и безоблачно+20°C80 %761 мм0.9 м/с2 %
    05:00Ясно и безоблачно+19°C85 %761 мм0.3 м/с2 %
    08:00Ясно и безоблачно+20°C81 %762 мм0.2 м/с2 %
    11:00Ясно и безоблачно+24°C70 %762 мм2.4 м/с2 %
    14:00Ясно и безоблачно+25°C62 %761 мм4.5 м/с2 %
    17:00Ясно и безоблачно+25°C63 %760 мм4.2 м/с2 %
    20:00Ясно и безоблачно+23°C64 %760 мм2.3 м/с2 %
    23:00Ясно и безоблачно+22°C72 %760 мм0.9 м/с2 %
  • 03сентября
    Четверг
    +19°
    +26°
    Ясно и безоблачно
    ВремяПогодаТемператураВлажностьДавлениеВетер, м/сВероятность осадков
    02:00Ясно и безоблачно+21°C82 %760 мм0.3 м/с2 %
    05:00Практически безоблачно+20°C87 %760 мм0.9 м/с2 %
    08:00Ясно и безоблачно+22°C78 %760 мм2.5 м/с2 %
    11:00Ясно и безоблачно+24°C70 %760 мм2.6 м/с2 %
    14:00Ясно и безоблачно+25°C71 %759 мм4.1 м/с2 %
    17:00Ясно и безоблачно+25°C73 %758 мм4.8 м/с2 %
    20:00Ясно и безоблачно+22°C75 %758 мм2.4 м/с2 %
    23:00Ясно и безоблачно+21°C78 %759 мм1.6 м/с2 %
  • 04сентября
    Пятница
    +19°
    +25°
    Ясно и безоблачно
    ВремяПогодаТемператураВлажностьДавлениеВетер, м/сВероятность осадков
    02:00Практически безоблачно+21°C81 %759 мм1.5 м/с2 %
    05:00Небольшая облачность+20°C86 %759 мм1.7 м/с2 %
    08:00Практически безоблачно+22°C80 %759 мм2.2 м/с2 %
    11:00Ясно и безоблачно+24°C66 %760 мм2.8 м/с2 %
    14:00Ясно и безоблачно+25°C67 %759 мм3.7 м/с2 %
    17:00Ясно и безоблачно+25°C70 %758 мм3.7 м/с2 %
    20:00Ясно и безоблачно+23°C71 %758 мм2.4 м/с2 %
    23:00Ясно и безоблачно+21°C76 %759 мм1.2 м/с2 %
  • 05сентября
    Суббота
    +21°
    +27°
    Ясно и безоблачно
    ВремяПогодаТемператураВлажностьДавлениеВетер, м/сВероятность осадков
    02:00Ясно и безоблачно+21°C81 %759 мм0.5 м/с4 %
    05:00Ясно и безоблачно+20°C87 %759 мм0.5 м/с8 %
    08:00Ясно и безоблачно+22°C80 %760 мм1.1 м/с13 %
    11:00Ясно и безоблачно+26°C53 %760 мм2.2 м/с16 %
    14:00Ясно и безоблачно+27°C59 %759 мм4.0 м/с17 %
    17:00Ясно и безоблачно+27°C63 %758 мм4.4 м/с15 %
    20:00Ясно и безоблачно+25°C65 %759 мм2.6 м/с17 %
    23:00Облачно с прояснениями+23°C63 %760 мм1.8 м/с24 %
  • 06сентября
    Воскресенье
    +19°
    +29°
    Ясно и безоблачно
    ВремяПогодаТемператураВлажностьДавлениеВетер, м/сВероятность осадков
    05:00Практически безоблачно+22°C78 %759 мм1.4 м/с25 %
    11:00Ясно и безоблачно+27°C60 %760 мм3.1 м/с28 %
    17:00Ясно и безоблачно+28°C51 %758 мм4.1 м/с28 %
    23:00Ясно и безоблачно+22°C72 %759 мм2.5 м/с24 %
  • 07сентября
    Понедельник
    +18°
    +27°
    Ясно и безоблачно
    ВремяПогодаТемператураВлажностьДавлениеВетер, м/сВероятность осадков
    05:00Ясно и безоблачно+19°C85 %758 мм1.8 м/с15 %
    11:00Ясно и безоблачно+25°C61 %759 мм2.6 м/с22 %
    17:00Ясно и безоблачно+26°C56 %758 мм4.7 м/с16 %
    23:00Практически безоблачно+20°C80 %758 мм2.3 м/с16 %
Мы используем cookies
Соглашаюсь